FDX1455 MDPC-MBPV
Flight info
| Callsign | FDX1455 |
|---|---|
| Flight time | 0h 55m |
| Altitude | 36000 |
| Route | PIXAR3T PIXAR UW10 ASIVO L453 MACKI DCT PVN |
| Aircraft | B77L/H-SDE1E2E3FGHIJ2J3J4J5M1RWXY/LB1D1 |
Departure
| Time | 2026-04-25 19:41 |
|---|---|
| Airport | Punta Cana International Airport (MDPC) |
Arrival
| Time | 2026-04-25 20:36 |
|---|---|
| Airport | Providenciales International Airport (MBPV) |
| Time | Latitude | Longitude | Altitude | Speed | Heading |
|---|---|---|---|---|---|
| 2026-04-25 19:28 | 18.56376 | -68.36511 | 55 ft | 0 kts | 175° |
| 2026-04-25 19:31 | 18.56395 | -68.36512 | 47 ft | 4 kts | 181° |
| 2026-04-25 19:32 | 18.56421 | -68.36513 | 47 ft | 4 kts | 185° |
| 2026-04-25 19:32 | 18.56445 | -68.36505 | 47 ft | 4 kts | 225° |
| 2026-04-25 19:32 | 18.56457 | -68.36483 | 47 ft | 2 kts | 263° |
| 2026-04-25 19:32 | 18.56457 | -68.36480 | 47 ft | 0 kts | 264° |
| 2026-04-25 19:35 | 18.56456 | -68.36484 | 47 ft | 4 kts | 264° |
| 2026-04-25 19:35 | 18.56459 | -68.36581 | 49 ft | 22 kts | 282° |
| 2026-04-25 19:35 | 18.56533 | -68.36718 | 49 ft | 20 kts | 300° |
| 2026-04-25 19:36 | 18.56659 | -68.36751 | 53 ft | 20 kts | 6° |
| 2026-04-25 19:36 | 18.56796 | -68.36754 | 54 ft | 20 kts | 353° |
| 2026-04-25 19:36 | 18.56899 | -68.36711 | 51 ft | 16 kts | 86° |
| 2026-04-25 19:36 | 18.56906 | -68.36591 | 50 ft | 16 kts | 84° |
| 2026-04-25 19:37 | 18.56918 | -68.36471 | 55 ft | 16 kts | 84° |
| 2026-04-25 19:37 | 18.56929 | -68.36350 | 55 ft | 16 kts | 85° |
| 2026-04-25 19:37 | 18.56941 | -68.36196 | 52 ft | 31 kts | 85° |
| 2026-04-25 19:37 | 18.56961 | -68.35938 | 55 ft | 32 kts | 84° |
| 2026-04-25 19:38 | 18.57051 | -68.35818 | 49 ft | 23 kts | 359° |
| 2026-04-25 19:38 | 18.57208 | -68.35824 | 53 ft | 23 kts | 358° |
| 2026-04-25 19:38 | 18.57365 | -68.35831 | 51 ft | 23 kts | 357° |
| 2026-04-25 19:38 | 18.57511 | -68.35835 | 51 ft | 18 kts | 31° |
| 2026-04-25 19:39 | 18.57563 | -68.35712 | 54 ft | 19 kts | 73° |
| 2026-04-25 19:39 | 18.57601 | -68.35582 | 49 ft | 19 kts | 73° |
| 2026-04-25 19:39 | 18.57665 | -68.35471 | 51 ft | 19 kts | 21° |
| 2026-04-25 19:39 | 18.57776 | -68.35518 | 51 ft | 19 kts | 294° |
| 2026-04-25 19:40 | 18.57739 | -68.35729 | 52 ft | 54 kts | 253° |
| 2026-04-25 19:40 | 18.57561 | -68.36372 | 49 ft | 126 kts | 254° |
| 2026-04-25 19:40 | 18.57278 | -68.37456 | 110 ft | 173 kts | 250° |
| 2026-04-25 19:40 | 18.56961 | -68.38708 | 487 ft | 190 kts | 248° |
| 2026-04-25 19:41 | 18.56563 | -68.40048 | 1239 ft | 185 kts | 252° |
| 2026-04-25 19:41 | 18.56328 | -68.41334 | 2158 ft | 174 kts | 267° |
| 2026-04-25 19:41 | 18.56744 | -68.42580 | 2821 ft | 199 kts | 301° |
| 2026-04-25 19:41 | 18.57026 | -68.42968 | 2912 ft | 211 kts | 308° |
| 2026-04-25 19:42 | 18.59474 | -68.44294 | 3534 ft | 259 kts | 342° |
| 2026-04-25 19:42 | 18.61225 | -68.44762 | 4386 ft | 265 kts | 343° |
| 2026-04-25 19:42 | 18.63016 | -68.45272 | 5335 ft | 268 kts | 342° |
| 2026-04-25 19:42 | 18.64825 | -68.45836 | 6214 ft | 275 kts | 340° |
| 2026-04-25 19:43 | 18.66669 | -68.46447 | 6806 ft | 280 kts | 340° |
| 2026-04-25 19:43 | 18.68541 | -68.47086 | 6978 ft | 284 kts | 339° |
| 2026-04-25 19:43 | 18.70425 | -68.47737 | 6979 ft | 285 kts | 339° |
| 2026-04-25 19:43 | 18.72238 | -68.48521 | 6966 ft | 279 kts | 324° |
| 2026-04-25 19:44 | 18.73748 | -68.49789 | 7677 ft | 278 kts | 318° |
| 2026-04-25 19:44 | 18.75259 | -68.51093 | 8619 ft | 282 kts | 319° |
| 2026-04-25 19:44 | 18.76791 | -68.52392 | 9607 ft | 284 kts | 319° |
| 2026-04-25 19:44 | 18.78355 | -68.53713 | 10406 ft | 293 kts | 319° |
| 2026-04-25 19:45 | 18.80010 | -68.55114 | 10742 ft | 319 kts | 319° |
| 2026-04-25 19:45 | 18.81823 | -68.56650 | 10951 ft | 348 kts | 319° |
| 2026-04-25 19:45 | 18.83775 | -68.58302 | 11391 ft | 367 kts | 319° |
| 2026-04-25 19:45 | 18.85790 | -68.60002 | 12149 ft | 376 kts | 319° |
| 2026-04-25 19:46 | 18.87852 | -68.61737 | 13021 ft | 380 kts | 319° |
| 2026-04-25 19:46 | 18.89928 | -68.63483 | 13948 ft | 383 kts | 319° |
| 2026-04-25 19:46 | 18.92022 | -68.65246 | 14739 ft | 387 kts | 319° |
| 2026-04-25 19:46 | 18.94136 | -68.67027 | 15508 ft | 391 kts | 319° |
| 2026-04-25 19:47 | 18.96277 | -68.68834 | 16266 ft | 396 kts | 319° |
| 2026-04-25 19:47 | 18.98442 | -68.70661 | 17019 ft | 400 kts | 318° |
| 2026-04-25 19:47 | 19.00630 | -68.72510 | 17764 ft | 405 kts | 318° |
| 2026-04-25 19:47 | 19.02841 | -68.74379 | 18450 ft | 409 kts | 318° |
| 2026-04-25 19:48 | 19.05071 | -68.76264 | 19131 ft | 412 kts | 318° |
| 2026-04-25 19:48 | 19.07317 | -68.78165 | 19845 ft | 414 kts | 318° |
| 2026-04-25 19:48 | 19.09569 | -68.80071 | 20531 ft | 416 kts | 319° |
| 2026-04-25 19:48 | 19.11839 | -68.81990 | 21201 ft | 419 kts | 319° |
| 2026-04-25 19:49 | 19.14119 | -68.83933 | 21851 ft | 422 kts | 317° |
| 2026-04-25 19:49 | 19.14837 | -68.84586 | 22059 ft | 422 kts | 315° |
| 2026-04-25 19:49 | 19.18400 | -68.88210 | 23119 ft | 427 kts | 313° |
| 2026-04-25 19:49 | 19.20516 | -68.90427 | 23697 ft | 430 kts | 312° |
| 2026-04-25 19:50 | 19.24759 | -68.94877 | 24916 ft | 430 kts | 312° |
| 2026-04-25 19:50 | 19.26895 | -68.97107 | 25418 ft | 433 kts | 312° |
| 2026-04-25 19:50 | 19.29051 | -68.99353 | 25914 ft | 436 kts | 312° |
| 2026-04-25 19:51 | 19.31225 | -69.01615 | 26412 ft | 439 kts | 311° |
| 2026-04-25 19:51 | 19.33407 | -69.03882 | 26936 ft | 441 kts | 311° |
| 2026-04-25 19:51 | 19.35602 | -69.06162 | 27457 ft | 443 kts | 311° |
| 2026-04-25 19:51 | 19.37808 | -69.08454 | 27970 ft | 445 kts | 311° |
| 2026-04-25 19:52 | 19.40024 | -69.10757 | 28456 ft | 448 kts | 311° |
| 2026-04-25 19:52 | 19.42255 | -69.13079 | 28916 ft | 451 kts | 311° |
| 2026-04-25 19:52 | 19.44499 | -69.15414 | 29365 ft | 453 kts | 311° |
| 2026-04-25 19:52 | 19.46754 | -69.17761 | 29804 ft | 455 kts | 310° |
| 2026-04-25 19:53 | 19.49014 | -69.20115 | 30211 ft | 457 kts | 310° |
| 2026-04-25 19:53 | 19.51283 | -69.22478 | 30646 ft | 456 kts | 310° |
| 2026-04-25 19:53 | 19.53542 | -69.24831 | 31113 ft | 456 kts | 310° |
| 2026-04-25 19:53 | 19.55776 | -69.27159 | 31547 ft | 456 kts | 310° |
| 2026-04-25 19:54 | 19.58030 | -69.29510 | 32076 ft | 454 kts | 309° |
| 2026-04-25 19:54 | 19.60275 | -69.31851 | 32613 ft | 451 kts | 309° |
| 2026-04-25 19:54 | 19.62509 | -69.34183 | 33038 ft | 451 kts | 309° |
| 2026-04-25 19:54 | 19.63269 | -69.34976 | 33179 ft | 452 kts | 309° |
| 2026-04-25 19:55 | 19.66987 | -69.38863 | 33837 ft | 452 kts | 309° |
| 2026-04-25 19:55 | 19.69228 | -69.41206 | 34222 ft | 451 kts | 309° |
| 2026-04-25 19:55 | 19.71456 | -69.43537 | 34593 ft | 450 kts | 308° |
| 2026-04-25 19:55 | 19.73687 | -69.45871 | 34960 ft | 449 kts | 308° |
| 2026-04-25 19:56 | 19.75906 | -69.48194 | 35313 ft | 449 kts | 308° |
| 2026-04-25 19:56 | 19.78126 | -69.50520 | 35656 ft | 448 kts | 308° |
| 2026-04-25 19:56 | 19.80346 | -69.52848 | 35869 ft | 451 kts | 308° |
| 2026-04-25 19:57 | 19.84822 | -69.57546 | 35922 ft | 450 kts | 308° |
| 2026-04-25 19:57 | 19.89241 | -69.62185 | 35921 ft | 444 kts | 308° |
| 2026-04-25 19:58 | 19.92923 | -69.65984 | 35945 ft | 447 kts | 313° |
| 2026-04-25 19:58 | 19.95558 | -69.67831 | 35954 ft | 461 kts | 325° |
| 2026-04-25 19:58 | 19.98549 | -69.69151 | 35904 ft | 473 kts | 334° |
| 2026-04-25 19:58 | 20.01797 | -69.69912 | 35910 ft | 485 kts | 346° |
| 2026-04-25 19:59 | 20.05180 | -69.70168 | 35916 ft | 488 kts | 348° |
| 2026-04-25 19:59 | 20.11983 | -69.70504 | 35912 ft | 490 kts | 349° |
| 2026-04-25 20:00 | 20.18778 | -69.70919 | 35905 ft | 490 kts | 348° |
| 2026-04-25 20:00 | 20.25585 | -69.71413 | 35919 ft | 490 kts | 347° |
| 2026-04-25 20:01 | 20.35818 | -69.72170 | 35915 ft | 492 kts | 348° |
| 2026-04-25 20:01 | 20.42323 | -69.73524 | 35910 ft | 459 kts | 324° |
| 2026-04-25 20:02 | 20.44918 | -69.75381 | 35926 ft | 444 kts | 311° |
| 2026-04-25 20:02 | 20.47053 | -69.77721 | 35913 ft | 437 kts | 301° |
| 2026-04-25 20:02 | 20.50124 | -69.83230 | 35910 ft | 433 kts | 294° |
| 2026-04-25 20:03 | 20.53060 | -69.88847 | 35924 ft | 434 kts | 294° |
| 2026-04-25 20:03 | 20.56022 | -69.94463 | 35921 ft | 434 kts | 294° |
| 2026-04-25 20:04 | 20.58999 | -70.00065 | 35922 ft | 433 kts | 294° |
| 2026-04-25 20:04 | 20.61969 | -70.05641 | 35917 ft | 431 kts | 294° |
| 2026-04-25 20:05 | 20.64915 | -70.11175 | 35913 ft | 427 kts | 294° |
| 2026-04-25 20:05 | 20.67818 | -70.16635 | 35914 ft | 424 kts | 294° |
| 2026-04-25 20:06 | 20.70720 | -70.22102 | 35921 ft | 422 kts | 294° |
| 2026-04-25 20:06 | 20.73612 | -70.27556 | 35916 ft | 422 kts | 294° |
| 2026-04-25 20:07 | 20.76497 | -70.33003 | 35920 ft | 422 kts | 294° |
| 2026-04-25 20:07 | 20.79386 | -70.38464 | 35922 ft | 423 kts | 294° |
| 2026-04-25 20:08 | 20.82283 | -70.43941 | 35922 ft | 424 kts | 294° |
| 2026-04-25 20:08 | 20.85184 | -70.49434 | 35921 ft | 425 kts | 294° |
| 2026-04-25 20:09 | 20.88089 | -70.54938 | 35929 ft | 425 kts | 294° |
| 2026-04-25 20:09 | 20.90282 | -70.59097 | 35925 ft | 426 kts | 294° |
| 2026-04-25 20:11 | 20.90779 | -70.60039 | 35919 ft | 426 kts | 294° |
| 2026-04-25 20:11 | 20.93668 | -70.65519 | 35608 ft | 422 kts | 294° |
| 2026-04-25 20:12 | 20.95110 | -70.68258 | 35340 ft | 422 kts | 294° |
| 2026-04-25 20:12 | 20.96549 | -70.70993 | 35128 ft | 421 kts | 294° |
| 2026-04-25 20:12 | 20.97981 | -70.73716 | 34972 ft | 419 kts | 294° |
| 2026-04-25 20:12 | 20.98922 | -70.75506 | 34870 ft | 417 kts | 294° |
| 2026-04-25 20:13 | 21.00822 | -70.79120 | 34670 ft | 415 kts | 294° |
| 2026-04-25 20:13 | 21.02229 | -70.81799 | 34590 ft | 411 kts | 294° |
| 2026-04-25 20:13 | 21.03625 | -70.84458 | 34207 ft | 410 kts | 294° |
| 2026-04-25 20:13 | 21.05019 | -70.87115 | 33662 ft | 407 kts | 294° |
| 2026-04-25 20:14 | 21.06403 | -70.89754 | 33063 ft | 404 kts | 294° |
| 2026-04-25 20:14 | 21.07774 | -70.92371 | 32508 ft | 401 kts | 294° |
| 2026-04-25 20:14 | 21.09133 | -70.94965 | 31972 ft | 398 kts | 294° |
| 2026-04-25 20:14 | 21.10465 | -70.97509 | 31426 ft | 395 kts | 294° |
| 2026-04-25 20:15 | 21.11822 | -71.00102 | 30907 ft | 393 kts | 294° |
| 2026-04-25 20:15 | 21.13150 | -71.02641 | 30388 ft | 390 kts | 295° |
| 2026-04-25 20:15 | 21.14475 | -71.05176 | 29828 ft | 389 kts | 295° |
| 2026-04-25 20:15 | 21.15776 | -71.07667 | 29247 ft | 387 kts | 295° |
| 2026-04-25 20:16 | 21.17102 | -71.10206 | 28660 ft | 384 kts | 295° |
| 2026-04-25 20:16 | 21.18386 | -71.12665 | 28159 ft | 381 kts | 295° |
| 2026-04-25 20:16 | 21.19695 | -71.15172 | 27634 ft | 379 kts | 295° |
| 2026-04-25 20:16 | 21.20957 | -71.17592 | 27138 ft | 376 kts | 295° |
| 2026-04-25 20:17 | 21.22231 | -71.20035 | 26641 ft | 374 kts | 295° |
| 2026-04-25 20:17 | 21.23495 | -71.22460 | 26153 ft | 373 kts | 296° |
| 2026-04-25 20:17 | 21.24757 | -71.24883 | 25673 ft | 371 kts | 296° |
| 2026-04-25 20:17 | 21.26013 | -71.27295 | 25180 ft | 370 kts | 296° |
| 2026-04-25 20:18 | 21.27269 | -71.29711 | 24691 ft | 370 kts | 296° |
| 2026-04-25 20:18 | 21.28520 | -71.32117 | 24209 ft | 370 kts | 296° |
| 2026-04-25 20:18 | 21.29770 | -71.34520 | 23731 ft | 370 kts | 296° |
| 2026-04-25 20:18 | 21.31023 | -71.36932 | 23199 ft | 370 kts | 296° |
| 2026-04-25 20:19 | 21.32273 | -71.39338 | 22685 ft | 368 kts | 297° |
| 2026-04-25 20:19 | 21.33516 | -71.41731 | 22193 ft | 367 kts | 297° |
| 2026-04-25 20:19 | 21.34755 | -71.44117 | 21734 ft | 365 kts | 297° |
| 2026-04-25 20:19 | 21.35987 | -71.46492 | 21265 ft | 363 kts | 297° |
| 2026-04-25 20:20 | 21.37212 | -71.48854 | 20805 ft | 362 kts | 297° |
| 2026-04-25 20:20 | 21.38433 | -71.51210 | 20359 ft | 361 kts | 297° |
| 2026-04-25 20:20 | 21.39653 | -71.53563 | 19905 ft | 360 kts | 297° |
| 2026-04-25 20:20 | 21.40868 | -71.55911 | 19461 ft | 360 kts | 297° |
| 2026-04-25 20:21 | 21.42083 | -71.58256 | 19001 ft | 360 kts | 297° |
| 2026-04-25 20:21 | 21.43300 | -71.60611 | 18529 ft | 360 kts | 297° |
| 2026-04-25 20:21 | 21.44499 | -71.62927 | 18043 ft | 350 kts | 297° |
| 2026-04-25 20:21 | 21.45673 | -71.65195 | 17574 ft | 347 kts | 297° |
| 2026-04-25 20:22 | 21.46843 | -71.67459 | 17122 ft | 347 kts | 297° |
| 2026-04-25 20:22 | 21.47239 | -71.68225 | 16970 ft | 346 kts | 297° |
| 2026-04-25 20:22 | 21.49178 | -71.71979 | 16234 ft | 346 kts | 297° |
| 2026-04-25 20:22 | 21.50345 | -71.74243 | 15797 ft | 346 kts | 297° |
| 2026-04-25 20:23 | 21.51512 | -71.76505 | 15355 ft | 346 kts | 297° |
| 2026-04-25 20:23 | 21.52674 | -71.78761 | 14932 ft | 345 kts | 297° |
| 2026-04-25 20:23 | 21.53836 | -71.81016 | 14497 ft | 345 kts | 297° |
| 2026-04-25 20:23 | 21.54998 | -71.83271 | 14066 ft | 345 kts | 297° |
| 2026-04-25 20:24 | 21.56150 | -71.85508 | 13590 ft | 336 kts | 297° |
| 2026-04-25 20:24 | 21.57260 | -71.87661 | 13161 ft | 333 kts | 297° |
| 2026-04-25 20:24 | 21.58381 | -71.89839 | 12722 ft | 333 kts | 297° |
| 2026-04-25 20:24 | 21.59500 | -71.92015 | 12308 ft | 333 kts | 297° |
| 2026-04-25 20:25 | 21.60618 | -71.94191 | 11895 ft | 333 kts | 297° |
| 2026-04-25 20:25 | 21.61738 | -71.96373 | 11484 ft | 333 kts | 297° |
| 2026-04-25 20:25 | 21.62856 | -71.98550 | 11069 ft | 333 kts | 297° |
| 2026-04-25 20:25 | 21.63976 | -72.00732 | 10644 ft | 334 kts | 297° |
| 2026-04-25 20:26 | 21.65091 | -72.02905 | 10394 ft | 328 kts | 297° |
| 2026-04-25 20:26 | 21.66181 | -72.05028 | 10255 ft | 320 kts | 297° |
| 2026-04-25 20:26 | 21.67223 | -72.07054 | 10082 ft | 296 kts | 297° |
| 2026-04-25 20:26 | 21.68174 | -72.08902 | 9885 ft | 274 kts | 297° |
| 2026-04-25 20:27 | 21.69005 | -72.10698 | 9457 ft | 266 kts | 284° |
| 2026-04-25 20:27 | 21.69191 | -72.12672 | 9030 ft | 264 kts | 270° |
| 2026-04-25 20:27 | 21.69199 | -72.14641 | 8408 ft | 259 kts | 270° |
| 2026-04-25 20:27 | 21.69221 | -72.16520 | 8063 ft | 246 kts | 270° |
| 2026-04-25 20:28 | 21.69251 | -72.18358 | 7782 ft | 246 kts | 271° |
| 2026-04-25 20:28 | 21.69287 | -72.20210 | 7494 ft | 251 kts | 271° |
| 2026-04-25 20:28 | 21.69328 | -72.22119 | 7197 ft | 257 kts | 271° |
| 2026-04-25 20:28 | 21.69374 | -72.24049 | 6898 ft | 258 kts | 271° |
| 2026-04-25 20:29 | 21.69422 | -72.25959 | 6570 ft | 252 kts | 271° |
| 2026-04-25 20:29 | 21.69472 | -72.27812 | 6291 ft | 244 kts | 271° |
| 2026-04-25 20:29 | 21.69521 | -72.29609 | 6054 ft | 238 kts | 271° |
| 2026-04-25 20:29 | 21.69569 | -72.31394 | 5799 ft | 240 kts | 271° |
| 2026-04-25 20:30 | 21.69617 | -72.33222 | 5535 ft | 249 kts | 271° |
| 2026-04-25 20:30 | 21.69667 | -72.35103 | 5246 ft | 254 kts | 271° |
| 2026-04-25 20:30 | 21.69718 | -72.37004 | 4933 ft | 253 kts | 272° |
| 2026-04-25 20:30 | 21.69771 | -72.38881 | 4620 ft | 250 kts | 272° |
| 2026-04-25 20:31 | 21.69824 | -72.40756 | 4168 ft | 251 kts | 272° |
| 2026-04-25 20:31 | 21.69878 | -72.42641 | 3744 ft | 253 kts | 272° |
| 2026-04-25 20:31 | 21.70217 | -72.44461 | 3292 ft | 248 kts | 298° |
| 2026-04-25 20:31 | 21.71321 | -72.45769 | 2815 ft | 237 kts | 329° |
| 2026-04-25 20:32 | 21.72821 | -72.46437 | 2360 ft | 227 kts | 346° |
| 2026-04-25 20:32 | 21.74354 | -72.46565 | 2066 ft | 220 kts | 1° |
| 2026-04-25 20:32 | 21.75900 | -72.46456 | 2018 ft | 224 kts | 9° |
| 2026-04-25 20:32 | 21.77304 | -72.45779 | 2008 ft | 224 kts | 44° |
| 2026-04-25 20:33 | 21.78092 | -72.44374 | 2013 ft | 221 kts | 77° |
| 2026-04-25 20:33 | 21.78208 | -72.42723 | 2017 ft | 226 kts | 93° |
| 2026-04-25 20:33 | 21.78119 | -72.41015 | 2001 ft | 229 kts | 95° |
| 2026-04-25 20:33 | 21.78086 | -72.40465 | 2002 ft | 227 kts | 94° |
| 2026-04-25 20:34 | 21.77924 | -72.37696 | 1991 ft | 217 kts | 94° |
| 2026-04-25 20:34 | 21.77819 | -72.36078 | 1817 ft | 212 kts | 96° |
| 2026-04-25 20:34 | 21.77716 | -72.34523 | 1158 ft | 206 kts | 93° |
| 2026-04-25 20:34 | 21.77666 | -72.33041 | 752 ft | 188 kts | 92° |
| 2026-04-25 20:35 | 21.77610 | -72.31703 | 608 ft | 171 kts | 94° |
| 2026-04-25 20:35 | 21.77543 | -72.30488 | 421 ft | 154 kts | 91° |
| 2026-04-25 20:35 | 21.77494 | -72.29354 | 312 ft | 153 kts | 94° |
| 2026-04-25 20:35 | 21.77437 | -72.28194 | 92 ft | 157 kts | 94° |
| 2026-04-25 20:36 | 21.77382 | -72.27107 | 43 ft | 132 kts | 91° |
| 2026-04-25 20:36 | 21.77343 | -72.26252 | 41 ft | 96 kts | 92° |
| 2026-04-25 20:36 | 21.77364 | -72.25850 | 42 ft | 25 kts | 17° |
| 2026-04-25 20:36 | 21.77432 | -72.25880 | 45 ft | 2 kts | 311° |